sensor_id;sensor_type;location;lat;lon;timestamp;P1;durP1;ratioP1;P2;durP2;ratioP2
80425;SDS011;69766;51.476;5.704;2023-09-19T00:01:31;12.50;;;2.40;;
80425;SDS011;69766;51.476;5.704;2023-09-19T00:04:02;7.93;;;1.90;;
80425;SDS011;69766;51.476;5.704;2023-09-19T00:09:15;13.88;;;2.40;;
80425;SDS011;69766;51.476;5.704;2023-09-19T00:11:46;17.75;;;2.85;;
80425;SDS011;69766;51.476;5.704;2023-09-19T00:14:29;11.32;;;2.10;;
80425;SDS011;69766;51.476;5.704;2023-09-19T00:20:06;12.38;;;2.53;;
80425;SDS011;69766;51.476;5.704;2023-09-19T00:23:03;14.18;;;2.63;;
80425;SDS011;69766;51.476;5.704;2023-09-19T00:25:54;15.82;;;2.88;;
80425;SDS011;69766;51.476;5.704;2023-09-19T00:28:28;13.20;;;2.58;;
80425;SDS011;69766;51.476;5.704;2023-09-19T00:31:26;14.13;;;2.70;;
80425;SDS011;69766;51.476;5.704;2023-09-19T00:34:08;17.42;;;2.85;;
80425;SDS011;69766;51.476;5.704;2023-09-19T00:36:57;12.70;;;3.08;;
80425;SDS011;69766;51.476;5.704;2023-09-19T00:42:18;12.63;;;2.90;;
80425;SDS011;69766;51.476;5.704;2023-09-19T00:45:11;12.77;;;2.85;;
80425;SDS011;69766;51.476;5.704;2023-09-19T00:47:54;7.60;;;2.17;;
80425;SDS011;69766;51.476;5.704;2023-09-19T00:50:57;13.82;;;2.45;;
80425;SDS011;69766;51.476;5.704;2023-09-19T00:53:30;12.40;;;2.20;;
80425;SDS011;69766;51.476;5.704;2023-09-19T00:55:56;7.70;;;2.00;;
80425;SDS011;69766;51.476;5.704;2023-09-19T00:58:22;10.93;;;2.38;;
80425;SDS011;69766;51.476;5.704;2023-09-19T01:01:01;16.15;;;2.38;;
80425;SDS011;69766;51.476;5.704;2023-09-19T01:03:36;12.63;;;2.72;;
80425;SDS011;69766;51.476;5.704;2023-09-19T01:06:02;11.30;;;2.08;;
80425;SDS011;69766;51.476;5.704;2023-09-19T01:08:33;10.18;;;2.25;;
80425;SDS011;69766;51.476;5.704;2023-09-19T01:11:14;12.70;;;2.60;;
80425;SDS011;69766;51.476;5.704;2023-09-19T01:14:38;9.68;;;2.20;;
80425;SDS011;69766;51.476;5.704;2023-09-19T01:17:36;14.40;;;3.03;;
80425;SDS011;69766;51.476;5.704;2023-09-19T01:20:15;10.25;;;2.47;;
80425;SDS011;69766;51.476;5.704;2023-09-19T01:23:23;15.55;;;2.92;;
80425;SDS011;69766;51.476;5.704;2023-09-19T01:37:22;10.63;;;2.28;;
80425;SDS011;69766;51.476;5.704;2023-09-19T01:40:06;11.90;;;2.58;;
80425;SDS011;69766;51.476;5.704;2023-09-19T01:42:54;9.38;;;2.40;;
80425;SDS011;69766;51.476;5.704;2023-09-19T01:45:33;12.70;;;2.70;;
80425;SDS011;69766;51.476;5.704;2023-09-19T01:52:18;10.68;;;2.65;;
80425;SDS011;69766;51.476;5.704;2023-09-19T01:55:12;12.20;;;3.38;;
80425;SDS011;69766;51.476;5.704;2023-09-19T02:00:49;14.35;;;2.58;;
80425;SDS011;69766;51.476;5.704;2023-09-19T02:03:42;13.30;;;2.28;;
80425;SDS011;69766;51.476;5.704;2023-09-19T02:06:27;14.23;;;2.72;;
80425;SDS011;69766;51.476;5.704;2023-09-19T02:09:03;10.95;;;2.70;;
80425;SDS011;69766;51.476;5.704;2023-09-19T02:11:38;12.23;;;2.53;;
80425;SDS011;69766;51.476;5.704;2023-09-19T02:14:09;13.18;;;2.17;;
80425;SDS011;69766;51.476;5.704;2023-09-19T02:16:41;14.00;;;2.50;;
80425;SDS011;69766;51.476;5.704;2023-09-19T02:19:33;12.10;;;2.20;;
80425;SDS011;69766;51.476;5.704;2023-09-19T02:22:11;10.95;;;2.15;;
80425;SDS011;69766;51.476;5.704;2023-09-19T02:25:07;14.70;;;2.88;;
80425;SDS011;69766;51.476;5.704;2023-09-19T02:28:03;12.02;;;2.30;;
80425;SDS011;69766;51.476;5.704;2023-09-19T02:30:47;12.25;;;2.30;;
80425;SDS011;69766;51.476;5.704;2023-09-19T02:33:30;9.02;;;2.78;;
80425;SDS011;69766;51.476;5.704;2023-09-19T02:36:15;12.88;;;2.00;;
80425;SDS011;69766;51.476;5.704;2023-09-19T02:38:56;11.50;;;2.45;;
80425;SDS011;69766;51.476;5.704;2023-09-19T02:41:27;12.90;;;2.28;;
80425;SDS011;69766;51.476;5.704;2023-09-19T02:44:02;10.00;;;2.40;;
80425;SDS011;69766;51.476;5.704;2023-09-19T02:46:48;8.55;;;1.88;;
80425;SDS011;69766;51.476;5.704;2023-09-19T02:49:19;12.70;;;2.42;;
80425;SDS011;69766;51.476;5.704;2023-09-19T02:51:48;11.90;;;2.17;;
80425;SDS011;69766;51.476;5.704;2023-09-19T02:54:26;13.23;;;3.10;;
80425;SDS011;69766;51.476;5.704;2023-09-19T02:57:05;11.63;;;2.40;;
80425;SDS011;69766;51.476;5.704;2023-09-19T02:59:41;11.27;;;2.38;;
80425;SDS011;69766;51.476;5.704;2023-09-19T03:02:14;8.80;;;2.00;;
80425;SDS011;69766;51.476;5.704;2023-09-19T03:10:47;8.48;;;2.13;;
80425;SDS011;69766;51.476;5.704;2023-09-19T03:13:25;9.80;;;2.13;;
80425;SDS011;69766;51.476;5.704;2023-09-19T03:16:19;13.38;;;2.85;;
80425;SDS011;69766;51.476;5.704;2023-09-19T03:19:03;11.30;;;2.38;;
80425;SDS011;69766;51.476;5.704;2023-09-19T03:22:00;10.98;;;2.08;;
80425;SDS011;69766;51.476;5.704;2023-09-19T03:24:41;9.32;;;2.58;;
80425;SDS011;69766;51.476;5.704;2023-09-19T03:27:09;16.30;;;2.65;;
80425;SDS011;69766;51.476;5.704;2023-09-19T03:29:59;12.68;;;2.65;;
80425;SDS011;69766;51.476;5.704;2023-09-19T03:32:36;11.02;;;2.15;;
80425;SDS011;69766;51.476;5.704;2023-09-19T03:35:05;6.30;;;1.90;;
80425;SDS011;69766;51.476;5.704;2023-09-19T03:37:34;8.65;;;1.95;;
80425;SDS011;69766;51.476;5.704;2023-09-19T03:40:09;11.80;;;2.33;;
80425;SDS011;69766;51.476;5.704;2023-09-19T03:42:46;13.32;;;2.28;;
80425;SDS011;69766;51.476;5.704;2023-09-19T03:45:20;14.40;;;3.00;;
80425;SDS011;69766;51.476;5.704;2023-09-19T03:47:58;8.88;;;2.22;;
80425;SDS011;69766;51.476;5.704;2023-09-19T03:50:38;9.13;;;2.17;;
80425;SDS011;69766;51.476;5.704;2023-09-19T03:53:24;13.10;;;2.80;;
80425;SDS011;69766;51.476;5.704;2023-09-19T03:55:53;11.98;;;2.47;;
80425;SDS011;69766;51.476;5.704;2023-09-19T03:58:36;8.43;;;2.17;;
80425;SDS011;69766;51.476;5.704;2023-09-19T04:01:14;10.95;;;2.38;;
80425;SDS011;69766;51.476;5.704;2023-09-19T04:03:46;10.40;;;2.22;;
80425;SDS011;69766;51.476;5.704;2023-09-19T04:06:21;9.60;;;1.90;;
80425;SDS011;69766;51.476;5.704;2023-09-19T04:08:57;10.80;;;2.03;;
80425;SDS011;69766;51.476;5.704;2023-09-19T04:11:40;14.20;;;2.92;;
80425;SDS011;69766;51.476;5.704;2023-09-19T04:14:23;8.90;;;2.45;;
80425;SDS011;69766;51.476;5.704;2023-09-19T04:16:58;13.20;;;2.58;;
80425;SDS011;69766;51.476;5.704;2023-09-19T04:19:55;16.55;;;3.13;;
80425;SDS011;69766;51.476;5.704;2023-09-19T04:22:32;13.48;;;2.40;;
80425;SDS011;69766;51.476;5.704;2023-09-19T04:25:01;8.60;;;2.45;;
80425;SDS011;69766;51.476;5.704;2023-09-19T04:27:38;15.95;;;2.80;;
80425;SDS011;69766;51.476;5.704;2023-09-19T04:30:06;15.95;;;2.72;;
80425;SDS011;69766;51.476;5.704;2023-09-19T04:32:35;16.15;;;3.17;;
80425;SDS011;69766;51.476;5.704;2023-09-19T04:35:04;10.98;;;3.13;;
80425;SDS011;69766;51.476;5.704;2023-09-19T04:37:40;14.25;;;3.55;;
80425;SDS011;69766;51.476;5.704;2023-09-19T04:40:56;10.80;;;2.75;;
80425;SDS011;69766;51.476;5.704;2023-09-19T04:43:30;14.07;;;2.72;;
80425;SDS011;69766;51.476;5.704;2023-09-19T04:45:56;12.48;;;2.55;;
80425;SDS011;69766;51.476;5.704;2023-09-19T04:48:29;13.15;;;2.95;;
80425;SDS011;69766;51.476;5.704;2023-09-19T04:51:02;15.07;;;3.15;;
80425;SDS011;69766;51.476;5.704;2023-09-19T04:53:49;12.30;;;2.45;;
80425;SDS011;69766;51.476;5.704;2023-09-19T04:56:35;9.48;;;3.50;;
80425;SDS011;69766;51.476;5.704;2023-09-19T04:59:20;13.05;;;2.45;;
80425;SDS011;69766;51.476;5.704;2023-09-19T05:01:46;14.52;;;2.97;;
80425;SDS011;69766;51.476;5.704;2023-09-19T05:04:12;11.07;;;3.30;;
80425;SDS011;69766;51.476;5.704;2023-09-19T05:06:53;11.80;;;2.25;;
80425;SDS011;69766;51.476;5.704;2023-09-19T05:09:25;14.95;;;2.63;;
80425;SDS011;69766;51.476;5.704;2023-09-19T05:11:54;10.75;;;2.53;;
80425;SDS011;69766;51.476;5.704;2023-09-19T05:14:34;14.63;;;2.78;;
80425;SDS011;69766;51.476;5.704;2023-09-19T05:17:03;10.10;;;2.20;;
80425;SDS011;69766;51.476;5.704;2023-09-19T05:19:35;7.90;;;2.08;;
80425;SDS011;69766;51.476;5.704;2023-09-19T05:22:06;15.55;;;2.92;;
80425;SDS011;69766;51.476;5.704;2023-09-19T05:24:38;11.30;;;2.60;;
80425;SDS011;69766;51.476;5.704;2023-09-19T05:27:13;10.32;;;2.80;;
80425;SDS011;69766;51.476;5.704;2023-09-19T05:30:04;12.70;;;2.30;;
80425;SDS011;69766;51.476;5.704;2023-09-19T05:32:48;10.82;;;2.65;;
80425;SDS011;69766;51.476;5.704;2023-09-19T05:35:23;7.18;;;2.65;;
80425;SDS011;69766;51.476;5.704;2023-09-19T05:37:54;13.73;;;2.88;;
80425;SDS011;69766;51.476;5.704;2023-09-19T05:40:26;11.68;;;2.30;;
80425;SDS011;69766;51.476;5.704;2023-09-19T05:42:57;11.20;;;3.03;;
80425;SDS011;69766;51.476;5.704;2023-09-19T05:45:38;13.70;;;2.53;;
80425;SDS011;69766;51.476;5.704;2023-09-19T05:48:17;9.50;;;2.28;;
80425;SDS011;69766;51.476;5.704;2023-09-19T05:53:37;10.48;;;2.47;;
80425;SDS011;69766;51.476;5.704;2023-09-19T05:56:11;11.23;;;1.98;;
80425;SDS011;69766;51.476;5.704;2023-09-19T05:58:40;10.90;;;2.80;;
80425;SDS011;69766;51.476;5.704;2023-09-19T06:01:09;10.50;;;2.78;;
80425;SDS011;69766;51.476;5.704;2023-09-19T06:03:57;9.85;;;1.98;;
80425;SDS011;69766;51.476;5.704;2023-09-19T06:06:30;19.38;;;3.15;;
80425;SDS011;69766;51.476;5.704;2023-09-19T06:09:20;11.93;;;2.65;;
80425;SDS011;69766;51.476;5.704;2023-09-19T06:11:54;13.27;;;2.67;;
80425;SDS011;69766;51.476;5.704;2023-09-19T06:14:36;10.35;;;2.55;;
80425;SDS011;69766;51.476;5.704;2023-09-19T06:17:32;16.50;;;2.42;;
80425;SDS011;69766;51.476;5.704;2023-09-19T06:20:09;8.75;;;2.80;;
80425;SDS011;69766;51.476;5.704;2023-09-19T06:23:07;7.28;;;1.90;;
80425;SDS011;69766;51.476;5.704;2023-09-19T06:25:35;13.52;;;2.20;;
80425;SDS011;69766;51.476;5.704;2023-09-19T06:28:09;19.42;;;3.50;;
80425;SDS011;69766;51.476;5.704;2023-09-19T06:30:47;13.00;;;3.00;;
80425;SDS011;69766;51.476;5.704;2023-09-19T06:33:18;11.00;;;3.42;;
80425;SDS011;69766;51.476;5.704;2023-09-19T06:38:51;13.07;;;2.53;;
80425;SDS011;69766;51.476;5.704;2023-09-19T06:41:24;12.93;;;3.13;;
80425;SDS011;69766;51.476;5.704;2023-09-19T06:43:55;15.38;;;3.15;;
80425;SDS011;69766;51.476;5.704;2023-09-19T06:46:24;17.38;;;2.50;;
80425;SDS011;69766;51.476;5.704;2023-09-19T06:49:07;16.27;;;2.67;;
80425;SDS011;69766;51.476;5.704;2023-09-19T06:51:45;12.45;;;2.30;;
80425;SDS011;69766;51.476;5.704;2023-09-19T06:54:25;19.05;;;3.10;;
80425;SDS011;69766;51.476;5.704;2023-09-19T06:56:58;13.80;;;2.40;;
80425;SDS011;69766;51.476;5.704;2023-09-19T06:59:27;16.27;;;3.20;;
80425;SDS011;69766;51.476;5.704;2023-09-19T07:02:03;17.77;;;2.88;;
80425;SDS011;69766;51.476;5.704;2023-09-19T07:04:37;14.77;;;2.83;;
80425;SDS011;69766;51.476;5.704;2023-09-19T07:07:31;10.98;;;2.45;;
80425;SDS011;69766;51.476;5.704;2023-09-19T07:10:08;16.05;;;2.75;;
80425;SDS011;69766;51.476;5.704;2023-09-19T07:12:46;12.40;;;2.58;;
80425;SDS011;69766;51.476;5.704;2023-09-19T07:15:25;22.13;;;4.10;;
80425;SDS011;69766;51.476;5.704;2023-09-19T07:18:12;12.18;;;2.90;;
80425;SDS011;69766;51.476;5.704;2023-09-19T07:20:49;14.68;;;2.58;;
80425;SDS011;69766;51.476;5.704;2023-09-19T07:23:36;12.93;;;2.58;;
80425;SDS011;69766;51.476;5.704;2023-09-19T07:26:16;7.63;;;2.00;;
80425;SDS011;69766;51.476;5.704;2023-09-19T07:29:00;16.25;;;3.25;;
80425;SDS011;69766;51.476;5.704;2023-09-19T07:34:12;13.18;;;3.00;;
80425;SDS011;69766;51.476;5.704;2023-09-19T07:36:43;15.18;;;3.00;;
80425;SDS011;69766;51.476;5.704;2023-09-19T07:39:27;13.27;;;2.85;;
80425;SDS011;69766;51.476;5.704;2023-09-19T07:42:01;10.43;;;2.63;;
80425;SDS011;69766;51.476;5.704;2023-09-19T07:44:51;9.70;;;2.10;;
80425;SDS011;69766;51.476;5.704;2023-09-19T07:47:38;11.90;;;2.53;;
80425;SDS011;69766;51.476;5.704;2023-09-19T07:50:17;12.50;;;2.45;;
80425;SDS011;69766;51.476;5.704;2023-09-19T07:55:42;10.70;;;2.30;;
80425;SDS011;69766;51.476;5.704;2023-09-19T07:58:35;16.50;;;2.33;;
80425;SDS011;69766;51.476;5.704;2023-09-19T08:01:12;11.07;;;2.88;;
80425;SDS011;69766;51.476;5.704;2023-09-19T08:03:41;13.60;;;2.00;;
80425;SDS011;69766;51.476;5.704;2023-09-19T08:06:33;10.50;;;2.08;;
80425;SDS011;69766;51.476;5.704;2023-09-19T08:09:44;10.38;;;2.10;;
80425;SDS011;69766;51.476;5.704;2023-09-19T08:12:27;8.40;;;2.08;;
80425;SDS011;69766;51.476;5.704;2023-09-19T08:15:01;11.02;;;2.95;;
80425;SDS011;69766;51.476;5.704;2023-09-19T08:17:40;10.45;;;2.35;;
80425;SDS011;69766;51.476;5.704;2023-09-19T08:20:20;13.88;;;3.25;;
80425;SDS011;69766;51.476;5.704;2023-09-19T08:26:01;10.45;;;2.20;;
80425;SDS011;69766;51.476;5.704;2023-09-19T08:29:02;11.73;;;2.72;;
80425;SDS011;69766;51.476;5.704;2023-09-19T08:31:42;13.05;;;2.63;;
80425;SDS011;69766;51.476;5.704;2023-09-19T08:34:18;10.18;;;2.10;;
80425;SDS011;69766;51.476;5.704;2023-09-19T08:36:55;10.75;;;2.70;;
80425;SDS011;69766;51.476;5.704;2023-09-19T08:39:21;18.23;;;2.17;;
80425;SDS011;69766;51.476;5.704;2023-09-19T08:41:52;25.30;;;3.78;;
80425;SDS011;69766;51.476;5.704;2023-09-19T08:44:36;15.68;;;2.38;;
80425;SDS011;69766;51.476;5.704;2023-09-19T08:47:18;10.98;;;2.03;;
80425;SDS011;69766;51.476;5.704;2023-09-19T08:53:00;9.00;;;2.30;;
80425;SDS011;69766;51.476;5.704;2023-09-19T08:55:50;11.77;;;2.75;;
80425;SDS011;69766;51.476;5.704;2023-09-19T08:58:50;12.77;;;2.33;;
80425;SDS011;69766;51.476;5.704;2023-09-19T09:04:24;12.30;;;2.15;;
80425;SDS011;69766;51.476;5.704;2023-09-19T09:06:57;16.08;;;2.78;;
80425;SDS011;69766;51.476;5.704;2023-09-19T09:09:32;17.90;;;2.95;;
80425;SDS011;69766;51.476;5.704;2023-09-19T09:15:26;11.02;;;2.20;;
80425;SDS011;69766;51.476;5.704;2023-09-19T09:18:11;9.98;;;2.53;;
80425;SDS011;69766;51.476;5.704;2023-09-19T09:20:50;14.05;;;3.08;;
80425;SDS011;69766;51.476;5.704;2023-09-19T09:23:22;14.73;;;3.13;;
80425;SDS011;69766;51.476;5.704;2023-09-19T09:26:03;9.10;;;2.40;;
80425;SDS011;69766;51.476;5.704;2023-09-19T09:28:40;7.68;;;2.08;;
80425;SDS011;69766;51.476;5.704;2023-09-19T09:31:26;11.93;;;2.45;;
80425;SDS011;69766;51.476;5.704;2023-09-19T09:34:36;11.32;;;2.72;;
80425;SDS011;69766;51.476;5.704;2023-09-19T09:37:12;16.27;;;2.28;;
80425;SDS011;69766;51.476;5.704;2023-09-19T09:40:00;13.07;;;2.75;;
80425;SDS011;69766;51.476;5.704;2023-09-19T09:42:52;13.20;;;2.63;;
80425;SDS011;69766;51.476;5.704;2023-09-19T09:45:29;12.98;;;2.83;;
80425;SDS011;69766;51.476;5.704;2023-09-19T09:48:00;12.15;;;2.75;;
80425;SDS011;69766;51.476;5.704;2023-09-19T09:50:46;9.23;;;2.20;;
80425;SDS011;69766;51.476;5.704;2023-09-19T09:56:08;10.98;;;1.80;;
80425;SDS011;69766;51.476;5.704;2023-09-19T09:58:51;9.63;;;1.85;;
80425;SDS011;69766;51.476;5.704;2023-09-19T10:01:24;10.73;;;1.90;;
80425;SDS011;69766;51.476;5.704;2023-09-19T10:04:02;10.32;;;2.58;;
80425;SDS011;69766;51.476;5.704;2023-09-19T10:06:40;15.10;;;2.65;;
80425;SDS011;69766;51.476;5.704;2023-09-19T10:09:15;7.82;;;1.95;;
80425;SDS011;69766;51.476;5.704;2023-09-19T10:12:08;10.95;;;2.00;;
80425;SDS011;69766;51.476;5.704;2023-09-19T10:14:38;13.02;;;2.53;;
80425;SDS011;69766;51.476;5.704;2023-09-19T10:17:15;12.90;;;3.13;;
80425;SDS011;69766;51.476;5.704;2023-09-19T10:19:55;11.77;;;2.17;;
80425;SDS011;69766;51.476;5.704;2023-09-19T10:22:44;11.63;;;2.20;;
80425;SDS011;69766;51.476;5.704;2023-09-19T10:25:58;10.00;;;2.45;;
80425;SDS011;69766;51.476;5.704;2023-09-19T10:28:45;10.23;;;1.85;;
80425;SDS011;69766;51.476;5.704;2023-09-19T10:31:25;14.13;;;2.53;;
80425;SDS011;69766;51.476;5.704;2023-09-19T10:34:12;8.20;;;2.40;;
80425;SDS011;69766;51.476;5.704;2023-09-19T10:37:18;9.77;;;2.63;;
80425;SDS011;69766;51.476;5.704;2023-09-19T10:39:53;7.78;;;1.95;;
80425;SDS011;69766;51.476;5.704;2023-09-19T10:42:25;10.90;;;2.05;;
80425;SDS011;69766;51.476;5.704;2023-09-19T10:44:54;10.57;;;2.13;;
80425;SDS011;69766;51.476;5.704;2023-09-19T10:47:25;12.20;;;2.15;;
80425;SDS011;69766;51.476;5.704;2023-09-19T10:50:01;9.02;;;1.92;;
80425;SDS011;69766;51.476;5.704;2023-09-19T10:52:42;7.43;;;1.85;;
80425;SDS011;69766;51.476;5.704;2023-09-19T10:55:20;10.77;;;2.33;;
80425;SDS011;69766;51.476;5.704;2023-09-19T10:57:53;10.18;;;1.90;;
80425;SDS011;69766;51.476;5.704;2023-09-19T11:00:26;10.13;;;2.15;;
80425;SDS011;69766;51.476;5.704;2023-09-19T11:11:44;6.85;;;1.70;;
80425;SDS011;69766;51.476;5.704;2023-09-19T11:20:25;12.40;;;2.05;;
80425;SDS011;69766;51.476;5.704;2023-09-19T11:25:47;8.40;;;1.52;;
80425;SDS011;69766;51.476;5.704;2023-09-19T11:28:29;7.85;;;2.00;;
80425;SDS011;69766;51.476;5.704;2023-09-19T11:40:05;9.50;;;2.53;;
80425;SDS011;69766;51.476;5.704;2023-09-19T11:42:45;9.60;;;2.00;;
80425;SDS011;69766;51.476;5.704;2023-09-19T11:48:13;10.02;;;1.85;;
80425;SDS011;69766;51.476;5.704;2023-09-19T11:50:45;5.80;;;1.50;;
80425;SDS011;69766;51.476;5.704;2023-09-19T11:53:15;6.60;;;2.13;;
80425;SDS011;69766;51.476;5.704;2023-09-19T11:55:51;6.38;;;1.67;;
80425;SDS011;69766;51.476;5.704;2023-09-19T11:58:17;6.50;;;1.80;;
80425;SDS011;69766;51.476;5.704;2023-09-19T12:00:47;6.88;;;1.42;;
80425;SDS011;69766;51.476;5.704;2023-09-19T12:03:29;6.57;;;1.15;;
80425;SDS011;69766;51.476;5.704;2023-09-19T12:05:56;5.40;;;1.30;;
80425;SDS011;69766;51.476;5.704;2023-09-19T12:08:25;4.97;;;1.30;;
80425;SDS011;69766;51.476;5.704;2023-09-19T12:10:55;4.35;;;1.35;;
80425;SDS011;69766;51.476;5.704;2023-09-19T12:13:24;5.97;;;0.88;;
80425;SDS011;69766;51.476;5.704;2023-09-19T12:15:55;4.35;;;1.05;;
80425;SDS011;69766;51.476;5.704;2023-09-19T12:18:31;4.82;;;1.00;;
80425;SDS011;69766;51.476;5.704;2023-09-19T12:20:58;6.85;;;1.48;;
80425;SDS011;69766;51.476;5.704;2023-09-19T12:23:30;5.40;;;1.17;;
80425;SDS011;69766;51.476;5.704;2023-09-19T12:25:56;4.25;;;1.30;;
80425;SDS011;69766;51.476;5.704;2023-09-19T12:28:30;5.15;;;1.10;;
80425;SDS011;69766;51.476;5.704;2023-09-19T12:31:06;6.85;;;1.15;;
80425;SDS011;69766;51.476;5.704;2023-09-19T12:33:33;5.55;;;0.90;;
80425;SDS011;69766;51.476;5.704;2023-09-19T12:36:19;5.38;;;1.00;;
80425;SDS011;69766;51.476;5.704;2023-09-19T12:39:04;3.47;;;0.68;;
80425;SDS011;69766;51.476;5.704;2023-09-19T12:41:38;7.60;;;1.20;;
80425;SDS011;69766;51.476;5.704;2023-09-19T12:44:15;5.35;;;1.30;;
80425;SDS011;69766;51.476;5.704;2023-09-19T12:46:45;3.92;;;0.93;;
80425;SDS011;69766;51.476;5.704;2023-09-19T12:49:18;3.25;;;0.95;;
80425;SDS011;69766;51.476;5.704;2023-09-19T12:51:50;3.85;;;1.25;;
80425;SDS011;69766;51.476;5.704;2023-09-19T12:54:26;3.63;;;0.90;;
80425;SDS011;69766;51.476;5.704;2023-09-19T12:57:30;6.78;;;1.08;;
80425;SDS011;69766;51.476;5.704;2023-09-19T13:00:43;4.68;;;0.90;;
80425;SDS011;69766;51.476;5.704;2023-09-19T13:06:00;3.53;;;0.95;;
80425;SDS011;69766;51.476;5.704;2023-09-19T13:08:38;2.85;;;0.70;;
80425;SDS011;69766;51.476;5.704;2023-09-19T13:11:10;3.38;;;0.77;;
80425;SDS011;69766;51.476;5.704;2023-09-19T13:13:48;6.30;;;0.90;;
80425;SDS011;69766;51.476;5.704;2023-09-19T13:16:22;6.38;;;1.02;;
80425;SDS011;69766;51.476;5.704;2023-09-19T13:19:07;6.68;;;0.85;;
80425;SDS011;69766;51.476;5.704;2023-09-19T13:21:34;6.72;;;1.15;;
80425;SDS011;69766;51.476;5.704;2023-09-19T13:24:23;3.92;;;0.80;;
80425;SDS011;69766;51.476;5.704;2023-09-19T13:27:02;4.18;;;1.17;;
80425;SDS011;69766;51.476;5.704;2023-09-19T13:29:42;2.42;;;0.65;;
80425;SDS011;69766;51.476;5.704;2023-09-19T13:32:10;3.25;;;1.20;;
80425;SDS011;69766;51.476;5.704;2023-09-19T13:34:39;4.60;;;1.05;;
80425;SDS011;69766;51.476;5.704;2023-09-19T13:37:37;3.60;;;0.73;;
80425;SDS011;69766;51.476;5.704;2023-09-19T13:40:20;4.97;;;0.82;;
80425;SDS011;69766;51.476;5.704;2023-09-19T13:43:28;4.68;;;0.80;;
80425;SDS011;69766;51.476;5.704;2023-09-19T13:49:43;5.93;;;1.13;;
80425;SDS011;69766;51.476;5.704;2023-09-19T13:52:21;3.05;;;0.80;;
80425;SDS011;69766;51.476;5.704;2023-09-19T13:55:39;3.67;;;0.65;;
80425;SDS011;69766;51.476;5.704;2023-09-19T13:58:19;3.95;;;0.90;;
80425;SDS011;69766;51.476;5.704;2023-09-19T14:00:57;8.70;;;0.90;;
80425;SDS011;69766;51.476;5.704;2023-09-19T14:03:41;4.68;;;0.90;;
80425;SDS011;69766;51.476;5.704;2023-09-19T14:13:10;4.90;;;1.13;;
80425;SDS011;69766;51.476;5.704;2023-09-19T14:19:40;3.67;;;1.13;;
80425;SDS011;69766;51.476;5.704;2023-09-19T14:22:09;4.70;;;1.02;;
80425;SDS011;69766;51.476;5.704;2023-09-19T14:27:42;4.47;;;0.98;;
80425;SDS011;69766;51.476;5.704;2023-09-19T14:30:19;3.60;;;0.70;;
80425;SDS011;69766;51.476;5.704;2023-09-19T14:33:00;3.25;;;0.70;;
80425;SDS011;69766;51.476;5.704;2023-09-19T14:39:52;2.60;;;0.85;;
80425;SDS011;69766;51.476;5.704;2023-09-19T14:42:53;4.78;;;0.80;;
80425;SDS011;69766;51.476;5.704;2023-09-19T14:45:27;5.80;;;0.70;;
80425;SDS011;69766;51.476;5.704;2023-09-19T14:47:56;3.67;;;0.80;;
80425;SDS011;69766;51.476;5.704;2023-09-19T14:50:32;6.00;;;1.00;;
80425;SDS011;69766;51.476;5.704;2023-09-19T14:53:08;2.90;;;1.17;;
80425;SDS011;69766;51.476;5.704;2023-09-19T14:55:45;3.58;;;0.80;;
80425;SDS011;69766;51.476;5.704;2023-09-19T14:58:21;3.85;;;0.85;;
80425;SDS011;69766;51.476;5.704;2023-09-19T15:00:49;6.22;;;1.27;;
80425;SDS011;69766;51.476;5.704;2023-09-19T15:03:20;3.65;;;1.08;;
80425;SDS011;69766;51.476;5.704;2023-09-19T15:05:49;3.78;;;0.80;;
80425;SDS011;69766;51.476;5.704;2023-09-19T15:13:50;5.53;;;0.80;;
80425;SDS011;69766;51.476;5.704;2023-09-19T15:16:21;4.28;;;1.13;;
80425;SDS011;69766;51.476;5.704;2023-09-19T15:18:52;4.88;;;0.95;;
80425;SDS011;69766;51.476;5.704;2023-09-19T15:21:24;7.55;;;1.08;;
80425;SDS011;69766;51.476;5.704;2023-09-19T15:24:05;3.40;;;1.08;;
80425;SDS011;69766;51.476;5.704;2023-09-19T15:26:37;5.93;;;2.55;;
80425;SDS011;69766;51.476;5.704;2023-09-19T15:29:14;6.72;;;1.80;;
80425;SDS011;69766;51.476;5.704;2023-09-19T15:31:47;8.60;;;5.15;;
80425;SDS011;69766;51.476;5.704;2023-09-19T15:34:37;5.30;;;1.80;;
80425;SDS011;69766;51.476;5.704;2023-09-19T15:37:17;6.18;;;1.60;;
80425;SDS011;69766;51.476;5.704;2023-09-19T15:42:46;8.73;;;2.10;;
80425;SDS011;69766;51.476;5.704;2023-09-19T15:45:40;3.60;;;1.15;;
80425;SDS011;69766;51.476;5.704;2023-09-19T15:48:11;4.90;;;1.38;;
80425;SDS011;69766;51.476;5.704;2023-09-19T15:50:48;5.10;;;1.20;;
80425;SDS011;69766;51.476;5.704;2023-09-19T15:53:49;6.65;;;1.38;;
80425;SDS011;69766;51.476;5.704;2023-09-19T15:56:27;7.35;;;1.70;;
80425;SDS011;69766;51.476;5.704;2023-09-19T15:59:16;5.82;;;2.17;;
80425;SDS011;69766;51.476;5.704;2023-09-19T16:02:12;8.55;;;1.90;;
80425;SDS011;69766;51.476;5.704;2023-09-19T16:04:42;12.57;;;3.40;;
80425;SDS011;69766;51.476;5.704;2023-09-19T16:07:11;4.28;;;1.15;;
80425;SDS011;69766;51.476;5.704;2023-09-19T16:09:46;5.67;;;1.00;;
80425;SDS011;69766;51.476;5.704;2023-09-19T16:12:39;5.70;;;1.58;;
80425;SDS011;69766;51.476;5.704;2023-09-19T16:15:20;6.75;;;1.15;;
80425;SDS011;69766;51.476;5.704;2023-09-19T16:17:46;5.93;;;1.33;;
80425;SDS011;69766;51.476;5.704;2023-09-19T16:20:17;7.18;;;1.40;;
80425;SDS011;69766;51.476;5.704;2023-09-19T16:23:00;3.95;;;0.88;;
80425;SDS011;69766;51.476;5.704;2023-09-19T16:25:34;4.78;;;1.13;;
80425;SDS011;69766;51.476;5.704;2023-09-19T16:28:03;5.03;;;1.80;;
80425;SDS011;69766;51.476;5.704;2023-09-19T16:30:32;5.43;;;1.65;;
80425;SDS011;69766;51.476;5.704;2023-09-19T16:33:01;5.32;;;1.85;;
80425;SDS011;69766;51.476;5.704;2023-09-19T16:35:36;10.77;;;4.05;;
80425;SDS011;69766;51.476;5.704;2023-09-19T16:38:11;11.25;;;5.55;;
80425;SDS011;69766;51.476;5.704;2023-09-19T16:41:04;9.82;;;3.28;;
80425;SDS011;69766;51.476;5.704;2023-09-19T16:43:50;7.07;;;2.50;;
80425;SDS011;69766;51.476;5.704;2023-09-19T16:49:06;7.68;;;2.47;;
80425;SDS011;69766;51.476;5.704;2023-09-19T16:51:55;8.20;;;2.13;;
80425;SDS011;69766;51.476;5.704;2023-09-19T16:54:32;7.45;;;2.17;;
80425;SDS011;69766;51.476;5.704;2023-09-19T16:57:11;8.82;;;1.92;;
80425;SDS011;69766;51.476;5.704;2023-09-19T16:59:50;6.88;;;1.83;;
80425;SDS011;69766;51.476;5.704;2023-09-19T17:05:35;5.88;;;2.00;;
80425;SDS011;69766;51.476;5.704;2023-09-19T17:08:10;5.88;;;1.70;;
80425;SDS011;69766;51.476;5.704;2023-09-19T17:10:42;7.32;;;2.42;;
80425;SDS011;69766;51.476;5.704;2023-09-19T17:13:20;8.98;;;2.85;;
80425;SDS011;69766;51.476;5.704;2023-09-19T17:18:45;6.95;;;1.40;;
80425;SDS011;69766;51.476;5.704;2023-09-19T17:21:30;5.03;;;1.52;;
80425;SDS011;69766;51.476;5.704;2023-09-19T17:24:00;5.07;;;1.30;;
80425;SDS011;69766;51.476;5.704;2023-09-19T17:26:32;7.47;;;1.70;;
80425;SDS011;69766;51.476;5.704;2023-09-19T17:31:37;7.72;;;1.90;;
80425;SDS011;69766;51.476;5.704;2023-09-19T17:34:11;3.83;;;1.40;;
80425;SDS011;69766;51.476;5.704;2023-09-19T17:36:37;6.53;;;1.50;;
80425;SDS011;69766;51.476;5.704;2023-09-19T17:39:21;5.13;;;1.92;;
80425;SDS011;69766;51.476;5.704;2023-09-19T17:41:58;6.50;;;1.60;;
80425;SDS011;69766;51.476;5.704;2023-09-19T17:44:26;3.70;;;1.25;;
80425;SDS011;69766;51.476;5.704;2023-09-19T17:47:08;4.93;;;1.48;;
80425;SDS011;69766;51.476;5.704;2023-09-19T17:49:39;6.60;;;1.30;;
80425;SDS011;69766;51.476;5.704;2023-09-19T17:52:14;3.72;;;1.33;;
80425;SDS011;69766;51.476;5.704;2023-09-19T17:54:45;5.68;;;1.73;;
80425;SDS011;69766;51.476;5.704;2023-09-19T17:57:18;4.90;;;1.70;;
80425;SDS011;69766;51.476;5.704;2023-09-19T17:59:53;5.03;;;1.35;;
80425;SDS011;69766;51.476;5.704;2023-09-19T18:02:36;7.93;;;1.80;;